sensor_id;sensor_type;location;lat;lon;timestamp;temperature;humidity
18083;DHT22;9168;51.194;6.840;2022-10-16T00:01:07;14.30;99.90
18083;DHT22;9168;51.194;6.840;2022-10-16T00:03:35;14.20;99.90
18083;DHT22;9168;51.194;6.840;2022-10-16T00:06:02;14.20;99.90
18083;DHT22;9168;51.194;6.840;2022-10-16T00:08:29;14.20;99.90
18083;DHT22;9168;51.194;6.840;2022-10-16T00:11:01;14.20;99.90
18083;DHT22;9168;51.194;6.840;2022-10-16T00:13:28;14.20;99.90
18083;DHT22;9168;51.194;6.840;2022-10-16T00:15:58;14.20;99.90
18083;DHT22;9168;51.194;6.840;2022-10-16T00:18:25;14.10;99.90
18083;DHT22;9168;51.194;6.840;2022-10-16T00:20:52;14.10;99.90
18083;DHT22;9168;51.194;6.840;2022-10-16T00:23:19;14.10;99.90
18083;DHT22;9168;51.194;6.840;2022-10-16T00:25:55;14.10;99.90
18083;DHT22;9168;51.194;6.840;2022-10-16T00:28:22;14.20;99.90
18083;DHT22;9168;51.194;6.840;2022-10-16T00:30:49;14.10;99.90
18083;DHT22;9168;51.194;6.840;2022-10-16T00:33:17;14.10;99.90
18083;DHT22;9168;51.194;6.840;2022-10-16T00:35:44;14.10;99.90
18083;DHT22;9168;51.194;6.840;2022-10-16T00:38:11;14.10;99.90
18083;DHT22;9168;51.194;6.840;2022-10-16T00:40:38;14.10;99.90
18083;DHT22;9168;51.194;6.840;2022-10-16T00:43:12;14.10;99.90
18083;DHT22;9168;51.194;6.840;2022-10-16T00:45:39;14.10;99.90
18083;DHT22;9168;51.194;6.840;2022-10-16T00:48:11;14.10;99.90
18083;DHT22;9168;51.194;6.840;2022-10-16T00:50:40;14.10;99.90
18083;DHT22;9168;51.194;6.840;2022-10-16T00:53:10;14.00;99.90
18083;DHT22;9168;51.194;6.840;2022-10-16T00:55:37;14.10;99.90
18083;DHT22;9168;51.194;6.840;2022-10-16T00:58:04;14.00;99.90
18083;DHT22;9168;51.194;6.840;2022-10-16T01:00:31;14.10;99.90
18083;DHT22;9168;51.194;6.840;2022-10-16T01:03:01;14.10;99.90
18083;DHT22;9168;51.194;6.840;2022-10-16T01:05:34;14.10;99.90
18083;DHT22;9168;51.194;6.840;2022-10-16T01:08:08;14.10;99.90
18083;DHT22;9168;51.194;6.840;2022-10-16T01:10:42;14.10;99.90
18083;DHT22;9168;51.194;6.840;2022-10-16T01:13:15;14.10;99.90
18083;DHT22;9168;51.194;6.840;2022-10-16T01:15:47;14.10;99.90
18083;DHT22;9168;51.194;6.840;2022-10-16T01:18:20;14.10;99.90
18083;DHT22;9168;51.194;6.840;2022-10-16T01:20:51;14.20;99.90
18083;DHT22;9168;51.194;6.840;2022-10-16T01:23:31;14.20;99.90
18083;DHT22;9168;51.194;6.840;2022-10-16T01:26:15;14.30;99.90
18083;DHT22;9168;51.194;6.840;2022-10-16T01:28:51;14.20;99.90
18083;DHT22;9168;51.194;6.840;2022-10-16T01:31:22;14.20;99.90
18083;DHT22;9168;51.194;6.840;2022-10-16T01:33:56;14.20;99.90
18083;DHT22;9168;51.194;6.840;2022-10-16T01:36:28;14.20;99.90
18083;DHT22;9168;51.194;6.840;2022-10-16T01:38:59;14.20;99.90
18083;DHT22;9168;51.194;6.840;2022-10-16T01:41:31;14.20;99.90
18083;DHT22;9168;51.194;6.840;2022-10-16T01:44:04;14.10;99.90
18083;DHT22;9168;51.194;6.840;2022-10-16T01:46:32;14.20;99.90
18083;DHT22;9168;51.194;6.840;2022-10-16T01:49:00;14.20;99.90
18083;DHT22;9168;51.194;6.840;2022-10-16T01:51:29;14.20;99.90
18083;DHT22;9168;51.194;6.840;2022-10-16T01:53:58;14.20;99.90
18083;DHT22;9168;51.194;6.840;2022-10-16T01:56:26;14.10;99.90
18083;DHT22;9168;51.194;6.840;2022-10-16T01:58:57;14.10;99.90
18083;DHT22;9168;51.194;6.840;2022-10-16T02:01:27;14.10;99.90
18083;DHT22;9168;51.194;6.840;2022-10-16T02:03:58;14.10;99.90
18083;DHT22;9168;51.194;6.840;2022-10-16T02:06:26;14.10;99.90
18083;DHT22;9168;51.194;6.840;2022-10-16T02:08:53;14.10;99.90
18083;DHT22;9168;51.194;6.840;2022-10-16T02:11:20;14.10;99.90
18083;DHT22;9168;51.194;6.840;2022-10-16T02:13:51;14.10;99.90
18083;DHT22;9168;51.194;6.840;2022-10-16T02:16:19;14.10;99.90
18083;DHT22;9168;51.194;6.840;2022-10-16T02:18:48;14.10;99.90
18083;DHT22;9168;51.194;6.840;2022-10-16T02:21:18;14.00;99.90
18083;DHT22;9168;51.194;6.840;2022-10-16T02:23:53;14.10;99.90
18083;DHT22;9168;51.194;6.840;2022-10-16T02:26:27;14.10;99.90
18083;DHT22;9168;51.194;6.840;2022-10-16T02:28:59;14.10;99.90
18083;DHT22;9168;51.194;6.840;2022-10-16T02:31:28;14.00;99.90
18083;DHT22;9168;51.194;6.840;2022-10-16T02:34:02;14.00;99.90
18083;DHT22;9168;51.194;6.840;2022-10-16T02:36:31;14.10;99.90
18083;DHT22;9168;51.194;6.840;2022-10-16T02:38:59;14.10;99.90
18083;DHT22;9168;51.194;6.840;2022-10-16T02:41:27;14.10;99.90
18083;DHT22;9168;51.194;6.840;2022-10-16T02:43:54;14.10;99.90
18083;DHT22;9168;51.194;6.840;2022-10-16T02:46:21;14.10;99.90
18083;DHT22;9168;51.194;6.840;2022-10-16T02:48:48;14.10;99.90
18083;DHT22;9168;51.194;6.840;2022-10-16T02:51:16;14.10;99.90
18083;DHT22;9168;51.194;6.840;2022-10-16T02:53:43;14.10;99.90
18083;DHT22;9168;51.194;6.840;2022-10-16T02:56:10;14.10;99.90
18083;DHT22;9168;51.194;6.840;2022-10-16T02:58:37;14.00;99.90
18083;DHT22;9168;51.194;6.840;2022-10-16T03:01:04;14.00;99.90
18083;DHT22;9168;51.194;6.840;2022-10-16T03:03:31;14.10;99.90
18083;DHT22;9168;51.194;6.840;2022-10-16T03:05:58;14.10;99.90
18083;DHT22;9168;51.194;6.840;2022-10-16T03:08:26;14.00;99.90
18083;DHT22;9168;51.194;6.840;2022-10-16T03:10:53;14.00;99.90
18083;DHT22;9168;51.194;6.840;2022-10-16T03:13:20;14.00;99.90
18083;DHT22;9168;51.194;6.840;2022-10-16T03:15:47;14.00;99.90
18083;DHT22;9168;51.194;6.840;2022-10-16T03:18:14;14.00;99.90
18083;DHT22;9168;51.194;6.840;2022-10-16T03:20:42;13.90;99.90
18083;DHT22;9168;51.194;6.840;2022-10-16T03:23:09;13.90;99.90
18083;DHT22;9168;51.194;6.840;2022-10-16T03:25:37;13.90;99.90
18083;DHT22;9168;51.194;6.840;2022-10-16T03:28:04;13.90;99.90
18083;DHT22;9168;51.194;6.840;2022-10-16T03:30:31;13.90;99.90
18083;DHT22;9168;51.194;6.840;2022-10-16T03:32:58;13.80;99.90
18083;DHT22;9168;51.194;6.840;2022-10-16T03:35:25;13.80;99.90
18083;DHT22;9168;51.194;6.840;2022-10-16T03:37:52;13.80;99.90
18083;DHT22;9168;51.194;6.840;2022-10-16T03:40:19;13.80;99.90
18083;DHT22;9168;51.194;6.840;2022-10-16T03:42:47;13.80;99.90
18083;DHT22;9168;51.194;6.840;2022-10-16T03:45:14;13.80;99.90
18083;DHT22;9168;51.194;6.840;2022-10-16T03:47:41;13.80;99.90
18083;DHT22;9168;51.194;6.840;2022-10-16T03:50:08;13.70;99.90
18083;DHT22;9168;51.194;6.840;2022-10-16T03:52:35;13.80;99.90
18083;DHT22;9168;51.194;6.840;2022-10-16T03:55:02;13.80;99.90
18083;DHT22;9168;51.194;6.840;2022-10-16T03:57:28;13.80;99.90
18083;DHT22;9168;51.194;6.840;2022-10-16T03:59:57;13.80;99.90
18083;DHT22;9168;51.194;6.840;2022-10-16T04:02:24;13.80;99.90
18083;DHT22;9168;51.194;6.840;2022-10-16T04:04:51;13.80;99.90
18083;DHT22;9168;51.194;6.840;2022-10-16T04:07:18;13.80;99.90
18083;DHT22;9168;51.194;6.840;2022-10-16T04:09:45;13.80;99.90
18083;DHT22;9168;51.194;6.840;2022-10-16T04:12:12;13.90;99.90
18083;DHT22;9168;51.194;6.840;2022-10-16T04:14:38;13.90;99.90
18083;DHT22;9168;51.194;6.840;2022-10-16T04:17:07;13.90;99.90
18083;DHT22;9168;51.194;6.840;2022-10-16T04:19:34;13.80;99.90
18083;DHT22;9168;51.194;6.840;2022-10-16T04:22:00;13.80;99.90
18083;DHT22;9168;51.194;6.840;2022-10-16T04:24:27;13.90;99.90
18083;DHT22;9168;51.194;6.840;2022-10-16T04:26:54;13.90;99.90
18083;DHT22;9168;51.194;6.840;2022-10-16T04:29:21;13.90;99.90
18083;DHT22;9168;51.194;6.840;2022-10-16T04:31:48;13.90;99.90
18083;DHT22;9168;51.194;6.840;2022-10-16T04:34:16;13.90;99.90
18083;DHT22;9168;51.194;6.840;2022-10-16T04:36:43;13.90;99.90
18083;DHT22;9168;51.194;6.840;2022-10-16T04:39:10;13.90;99.90
18083;DHT22;9168;51.194;6.840;2022-10-16T04:41:37;13.90;99.90
18083;DHT22;9168;51.194;6.840;2022-10-16T04:44:04;13.90;99.90
18083;DHT22;9168;51.194;6.840;2022-10-16T04:46:31;13.80;99.90
18083;DHT22;9168;51.194;6.840;2022-10-16T04:48:58;13.80;99.90
18083;DHT22;9168;51.194;6.840;2022-10-16T04:51:26;13.90;99.90
18083;DHT22;9168;51.194;6.840;2022-10-16T04:53:53;13.90;99.90
18083;DHT22;9168;51.194;6.840;2022-10-16T04:56:21;13.80;99.90
18083;DHT22;9168;51.194;6.840;2022-10-16T04:58:48;13.80;99.90
18083;DHT22;9168;51.194;6.840;2022-10-16T05:01:15;13.80;99.90
18083;DHT22;9168;51.194;6.840;2022-10-16T05:03:42;13.80;99.90
18083;DHT22;9168;51.194;6.840;2022-10-16T05:06:09;13.80;99.90
18083;DHT22;9168;51.194;6.840;2022-10-16T05:08:37;13.80;99.90
18083;DHT22;9168;51.194;6.840;2022-10-16T05:11:04;13.80;99.90
18083;DHT22;9168;51.194;6.840;2022-10-16T05:13:31;13.70;99.90
18083;DHT22;9168;51.194;6.840;2022-10-16T05:15:57;13.70;99.90
18083;DHT22;9168;51.194;6.840;2022-10-16T05:18:24;13.70;99.90
18083;DHT22;9168;51.194;6.840;2022-10-16T05:20:51;13.70;99.90
18083;DHT22;9168;51.194;6.840;2022-10-16T05:23:18;13.70;99.90
18083;DHT22;9168;51.194;6.840;2022-10-16T05:25:53;13.70;99.90
18083;DHT22;9168;51.194;6.840;2022-10-16T05:28:21;13.70;99.90
18083;DHT22;9168;51.194;6.840;2022-10-16T05:30:48;13.70;99.90
18083;DHT22;9168;51.194;6.840;2022-10-16T05:33:15;13.70;99.90
18083;DHT22;9168;51.194;6.840;2022-10-16T05:35:42;13.70;99.90
18083;DHT22;9168;51.194;6.840;2022-10-16T05:38:09;13.70;99.90
18083;DHT22;9168;51.194;6.840;2022-10-16T05:40:36;13.70;99.90
18083;DHT22;9168;51.194;6.840;2022-10-16T05:43:04;13.70;99.90
18083;DHT22;9168;51.194;6.840;2022-10-16T05:45:31;13.70;99.90
18083;DHT22;9168;51.194;6.840;2022-10-16T05:47:59;13.70;99.90
18083;DHT22;9168;51.194;6.840;2022-10-16T05:50:26;13.70;99.90
18083;DHT22;9168;51.194;6.840;2022-10-16T05:52:53;13.70;99.90
18083;DHT22;9168;51.194;6.840;2022-10-16T05:55:20;13.70;99.90
18083;DHT22;9168;51.194;6.840;2022-10-16T05:57:46;13.80;99.90
18083;DHT22;9168;51.194;6.840;2022-10-16T06:00:15;13.80;99.90
18083;DHT22;9168;51.194;6.840;2022-10-16T06:02:42;13.80;99.90
18083;DHT22;9168;51.194;6.840;2022-10-16T06:05:08;13.90;99.90
18083;DHT22;9168;51.194;6.840;2022-10-16T06:07:36;13.90;99.90
18083;DHT22;9168;51.194;6.840;2022-10-16T06:10:04;13.90;99.90
18083;DHT22;9168;51.194;6.840;2022-10-16T06:12:31;13.90;99.90
18083;DHT22;9168;51.194;6.840;2022-10-16T06:14:58;13.90;99.90
18083;DHT22;9168;51.194;6.840;2022-10-16T06:17:26;13.90;99.90
18083;DHT22;9168;51.194;6.840;2022-10-16T06:19:53;14.00;99.90
18083;DHT22;9168;51.194;6.840;2022-10-16T06:22:19;14.00;99.90
18083;DHT22;9168;51.194;6.840;2022-10-16T06:24:46;14.00;99.90
18083;DHT22;9168;51.194;6.840;2022-10-16T06:27:15;14.00;99.90
18083;DHT22;9168;51.194;6.840;2022-10-16T06:29:42;14.10;99.90
18083;DHT22;9168;51.194;6.840;2022-10-16T06:32:10;14.00;99.90
18083;DHT22;9168;51.194;6.840;2022-10-16T06:34:38;14.10;99.90
18083;DHT22;9168;51.194;6.840;2022-10-16T06:37:06;14.10;99.90
18083;DHT22;9168;51.194;6.840;2022-10-16T06:39:33;14.10;99.90
18083;DHT22;9168;51.194;6.840;2022-10-16T06:42:00;14.20;99.90
18083;DHT22;9168;51.194;6.840;2022-10-16T06:44:27;14.10;99.90
18083;DHT22;9168;51.194;6.840;2022-10-16T06:46:54;14.20;99.90
18083;DHT22;9168;51.194;6.840;2022-10-16T06:49:21;14.10;99.90
18083;DHT22;9168;51.194;6.840;2022-10-16T06:51:50;14.10;99.90
18083;DHT22;9168;51.194;6.840;2022-10-16T06:54:19;14.10;99.90
18083;DHT22;9168;51.194;6.840;2022-10-16T06:56:46;14.20;99.90
18083;DHT22;9168;51.194;6.840;2022-10-16T06:59:13;14.20;99.90
18083;DHT22;9168;51.194;6.840;2022-10-16T07:01:40;14.30;99.90
18083;DHT22;9168;51.194;6.840;2022-10-16T07:04:07;14.40;99.90
18083;DHT22;9168;51.194;6.840;2022-10-16T07:06:34;14.50;99.90
18083;DHT22;9168;51.194;6.840;2022-10-16T07:09:04;14.50;99.90
18083;DHT22;9168;51.194;6.840;2022-10-16T07:11:31;14.50;99.90
18083;DHT22;9168;51.194;6.840;2022-10-16T07:13:58;14.50;99.90
18083;DHT22;9168;51.194;6.840;2022-10-16T07:16:27;14.50;99.90
18083;DHT22;9168;51.194;6.840;2022-10-16T07:18:54;14.50;99.90
18083;DHT22;9168;51.194;6.840;2022-10-16T07:21:25;14.50;99.90
18083;DHT22;9168;51.194;6.840;2022-10-16T07:23:53;14.50;99.90
18083;DHT22;9168;51.194;6.840;2022-10-16T07:26:22;14.50;99.90
18083;DHT22;9168;51.194;6.840;2022-10-16T07:28:49;14.40;99.90
18083;DHT22;9168;51.194;6.840;2022-10-16T07:31:18;14.40;99.90
18083;DHT22;9168;51.194;6.840;2022-10-16T07:33:46;14.50;99.90
18083;DHT22;9168;51.194;6.840;2022-10-16T07:36:14;14.40;99.90
18083;DHT22;9168;51.194;6.840;2022-10-16T07:38:42;14.40;99.90
18083;DHT22;9168;51.194;6.840;2022-10-16T07:41:11;14.40;99.90
18083;DHT22;9168;51.194;6.840;2022-10-16T07:43:40;14.40;99.90
18083;DHT22;9168;51.194;6.840;2022-10-16T07:46:11;14.40;99.90
18083;DHT22;9168;51.194;6.840;2022-10-16T07:48:38;14.30;99.90
18083;DHT22;9168;51.194;6.840;2022-10-16T07:51:06;14.30;99.90
18083;DHT22;9168;51.194;6.840;2022-10-16T07:53:33;14.30;99.90
18083;DHT22;9168;51.194;6.840;2022-10-16T07:56:02;14.30;99.90
18083;DHT22;9168;51.194;6.840;2022-10-16T07:58:29;14.40;99.90
18083;DHT22;9168;51.194;6.840;2022-10-16T08:00:58;14.40;99.90
18083;DHT22;9168;51.194;6.840;2022-10-16T08:03:25;14.40;99.90
18083;DHT22;9168;51.194;6.840;2022-10-16T08:05:52;14.60;99.90
18083;DHT22;9168;51.194;6.840;2022-10-16T08:08:20;14.60;99.90
18083;DHT22;9168;51.194;6.840;2022-10-16T08:10:47;14.70;99.90
18083;DHT22;9168;51.194;6.840;2022-10-16T08:13:15;14.80;99.90
18083;DHT22;9168;51.194;6.840;2022-10-16T08:15:42;14.80;99.90
18083;DHT22;9168;51.194;6.840;2022-10-16T08:18:11;14.80;99.90
18083;DHT22;9168;51.194;6.840;2022-10-16T08:20:39;14.90;99.90
18083;DHT22;9168;51.194;6.840;2022-10-16T08:23:06;15.00;99.90
18083;DHT22;9168;51.194;6.840;2022-10-16T08:25:34;15.00;99.90
18083;DHT22;9168;51.194;6.840;2022-10-16T08:28:03;15.10;99.90
18083;DHT22;9168;51.194;6.840;2022-10-16T08:30:30;15.20;99.90
18083;DHT22;9168;51.194;6.840;2022-10-16T08:32:57;15.20;99.90
18083;DHT22;9168;51.194;6.840;2022-10-16T08:35:25;15.20;99.90
18083;DHT22;9168;51.194;6.840;2022-10-16T08:37:52;15.20;99.90
18083;DHT22;9168;51.194;6.840;2022-10-16T08:40:22;15.30;99.90
18083;DHT22;9168;51.194;6.840;2022-10-16T08:43:05;15.40;99.90
18083;DHT22;9168;51.194;6.840;2022-10-16T08:45:43;15.40;99.90
18083;DHT22;9168;51.194;6.840;2022-10-16T08:48:20;15.40;99.90
18083;DHT22;9168;51.194;6.840;2022-10-16T08:50:50;15.50;99.90
18083;DHT22;9168;51.194;6.840;2022-10-16T08:53:22;15.50;99.90
18083;DHT22;9168;51.194;6.840;2022-10-16T08:55:51;15.60;99.90
18083;DHT22;9168;51.194;6.840;2022-10-16T08:58:20;15.70;99.90
18083;DHT22;9168;51.194;6.840;2022-10-16T09:00:51;15.70;99.90
18083;DHT22;9168;51.194;6.840;2022-10-16T09:03:33;15.90;99.90
18083;DHT22;9168;51.194;6.840;2022-10-16T09:06:28;15.90;99.90
18083;DHT22;9168;51.194;6.840;2022-10-16T09:09:08;16.00;99.90
18083;DHT22;9168;51.194;6.840;2022-10-16T09:11:48;16.10;99.90
18083;DHT22;9168;51.194;6.840;2022-10-16T09:14:35;16.20;99.90
18083;DHT22;9168;51.194;6.840;2022-10-16T09:17:17;16.20;99.90
18083;DHT22;9168;51.194;6.840;2022-10-16T09:19:53;16.30;99.90
18083;DHT22;9168;51.194;6.840;2022-10-16T09:22:25;16.30;99.90
18083;DHT22;9168;51.194;6.840;2022-10-16T09:24:54;16.30;99.90
18083;DHT22;9168;51.194;6.840;2022-10-16T09:27:22;16.40;99.90
18083;DHT22;9168;51.194;6.840;2022-10-16T09:29:49;16.40;99.90
18083;DHT22;9168;51.194;6.840;2022-10-16T09:32:19;16.40;99.90
18083;DHT22;9168;51.194;6.840;2022-10-16T09:34:49;16.50;99.90
18083;DHT22;9168;51.194;6.840;2022-10-16T09:37:19;16.50;99.90
18083;DHT22;9168;51.194;6.840;2022-10-16T09:39:49;16.60;99.90
18083;DHT22;9168;51.194;6.840;2022-10-16T09:42:18;16.60;99.90
18083;DHT22;9168;51.194;6.840;2022-10-16T09:44:48;16.60;99.90
18083;DHT22;9168;51.194;6.840;2022-10-16T09:47:18;16.60;99.90
18083;DHT22;9168;51.194;6.840;2022-10-16T09:49:54;16.70;99.90
18083;DHT22;9168;51.194;6.840;2022-10-16T09:52:22;16.80;99.90
18083;DHT22;9168;51.194;6.840;2022-10-16T09:54:51;16.90;99.90
18083;DHT22;9168;51.194;6.840;2022-10-16T09:57:19;17.00;99.90
18083;DHT22;9168;51.194;6.840;2022-10-16T09:59:48;17.00;99.90
18083;DHT22;9168;51.194;6.840;2022-10-16T10:02:16;17.10;99.90
18083;DHT22;9168;51.194;6.840;2022-10-16T10:04:49;17.10;99.90
18083;DHT22;9168;51.194;6.840;2022-10-16T10:07:18;17.10;99.90
18083;DHT22;9168;51.194;6.840;2022-10-16T10:09:47;17.00;99.90
18083;DHT22;9168;51.194;6.840;2022-10-16T10:12:20;17.00;99.90
18083;DHT22;9168;51.194;6.840;2022-10-16T10:14:50;16.90;99.90
18083;DHT22;9168;51.194;6.840;2022-10-16T10:17:19;17.00;99.90
18083;DHT22;9168;51.194;6.840;2022-10-16T10:19:50;17.10;99.90
18083;DHT22;9168;51.194;6.840;2022-10-16T10:22:22;17.20;99.90
18083;DHT22;9168;51.194;6.840;2022-10-16T10:24:59;17.30;99.90
18083;DHT22;9168;51.194;6.840;2022-10-16T10:27:33;17.50;99.90
18083;DHT22;9168;51.194;6.840;2022-10-16T10:30:07;17.60;99.90
18083;DHT22;9168;51.194;6.840;2022-10-16T10:32:43;17.60;99.90
18083;DHT22;9168;51.194;6.840;2022-10-16T10:35:15;17.60;99.90
18083;DHT22;9168;51.194;6.840;2022-10-16T10:38:00;17.70;99.90
18083;DHT22;9168;51.194;6.840;2022-10-16T10:40:39;17.70;99.90
18083;DHT22;9168;51.194;6.840;2022-10-16T10:43:17;17.90;99.90
18083;DHT22;9168;51.194;6.840;2022-10-16T10:45:47;18.20;99.90
18083;DHT22;9168;51.194;6.840;2022-10-16T10:48:27;18.30;99.90
18083;DHT22;9168;51.194;6.840;2022-10-16T10:50:59;18.60;99.90
18083;DHT22;9168;51.194;6.840;2022-10-16T10:53:38;19.00;99.90
18083;DHT22;9168;51.194;6.840;2022-10-16T10:56:15;19.20;99.90
18083;DHT22;9168;51.194;6.840;2022-10-16T10:58:58;19.50;99.90
18083;DHT22;9168;51.194;6.840;2022-10-16T11:01:35;19.60;99.90
18083;DHT22;9168;51.194;6.840;2022-10-16T11:04:29;19.90;99.90
18083;DHT22;9168;51.194;6.840;2022-10-16T11:07:01;20.20;99.90
18083;DHT22;9168;51.194;6.840;2022-10-16T11:09:33;20.30;99.90
18083;DHT22;9168;51.194;6.840;2022-10-16T11:12:05;20.20;99.90
18083;DHT22;9168;51.194;6.840;2022-10-16T11:14:40;20.50;99.90
18083;DHT22;9168;51.194;6.840;2022-10-16T11:17:13;20.90;99.90
18083;DHT22;9168;51.194;6.840;2022-10-16T11:19:45;21.80;99.90
18083;DHT22;9168;51.194;6.840;2022-10-16T11:22:17;22.70;99.90
18083;DHT22;9168;51.194;6.840;2022-10-16T11:24:47;23.50;99.90
18083;DHT22;9168;51.194;6.840;2022-10-16T11:27:19;24.10;99.90
18083;DHT22;9168;51.194;6.840;2022-10-16T11:29:56;24.40;99.90
18083;DHT22;9168;51.194;6.840;2022-10-16T11:32:28;25.10;99.90
18083;DHT22;9168;51.194;6.840;2022-10-16T11:35:02;25.60;99.90
18083;DHT22;9168;51.194;6.840;2022-10-16T11:37:33;25.70;99.90
18083;DHT22;9168;51.194;6.840;2022-10-16T11:40:16;25.20;99.90
18083;DHT22;9168;51.194;6.840;2022-10-16T11:42:50;24.30;99.90
18083;DHT22;9168;51.194;6.840;2022-10-16T11:45:26;23.90;99.90
18083;DHT22;9168;51.194;6.840;2022-10-16T11:47:58;24.20;99.90
18083;DHT22;9168;51.194;6.840;2022-10-16T11:50:31;24.60;99.90
18083;DHT22;9168;51.194;6.840;2022-10-16T11:53:04;25.40;99.90
18083;DHT22;9168;51.194;6.840;2022-10-16T11:55:37;25.90;99.90
18083;DHT22;9168;51.194;6.840;2022-10-16T11:58:06;26.20;99.90
18083;DHT22;9168;51.194;6.840;2022-10-16T12:00:40;26.40;99.90
18083;DHT22;9168;51.194;6.840;2022-10-16T12:03:14;26.80;99.90
18083;DHT22;9168;51.194;6.840;2022-10-16T12:05:55;26.70;99.10
18083;DHT22;9168;51.194;6.840;2022-10-16T12:08:25;26.60;99.20
18083;DHT22;9168;51.194;6.840;2022-10-16T12:10:52;26.30;99.10
18083;DHT22;9168;51.194;6.840;2022-10-16T12:13:31;26.10;99.70
18083;DHT22;9168;51.194;6.840;2022-10-16T12:16:08;25.80;99.20
18083;DHT22;9168;51.194;6.840;2022-10-16T12:18:46;25.70;99.90
18083;DHT22;9168;51.194;6.840;2022-10-16T12:21:15;25.60;99.90
18083;DHT22;9168;51.194;6.840;2022-10-16T12:23:48;25.30;99.90
18083;DHT22;9168;51.194;6.840;2022-10-16T12:26:24;24.80;99.90
18083;DHT22;9168;51.194;6.840;2022-10-16T12:28:51;24.40;99.90
18083;DHT22;9168;51.194;6.840;2022-10-16T12:31:19;24.10;99.90
18083;DHT22;9168;51.194;6.840;2022-10-16T12:33:57;23.80;99.90
18083;DHT22;9168;51.194;6.840;2022-10-16T12:36:29;23.40;99.90
18083;DHT22;9168;51.194;6.840;2022-10-16T12:38:56;23.30;99.90
18083;DHT22;9168;51.194;6.840;2022-10-16T12:41:25;23.10;99.90
18083;DHT22;9168;51.194;6.840;2022-10-16T12:43:52;23.00;99.90
18083;DHT22;9168;51.194;6.840;2022-10-16T12:46:39;22.70;99.90
18083;DHT22;9168;51.194;6.840;2022-10-16T12:49:29;22.60;99.90
18083;DHT22;9168;51.194;6.840;2022-10-16T12:51:57;22.30;99.90
18083;DHT22;9168;51.194;6.840;2022-10-16T12:54:27;22.10;99.90
18083;DHT22;9168;51.194;6.840;2022-10-16T12:57:09;22.00;99.90
18083;DHT22;9168;51.194;6.840;2022-10-16T12:59:45;21.80;99.90
18083;DHT22;9168;51.194;6.840;2022-10-16T13:02:49;21.60;99.90
18083;DHT22;9168;51.194;6.840;2022-10-16T13:05:29;21.30;99.90
18083;DHT22;9168;51.194;6.840;2022-10-16T13:08:09;21.20;99.90
18083;DHT22;9168;51.194;6.840;2022-10-16T13:10:42;21.00;99.90
18083;DHT22;9168;51.194;6.840;2022-10-16T13:13:29;21.00;99.90
18083;DHT22;9168;51.194;6.840;2022-10-16T13:16:08;21.10;99.90
18083;DHT22;9168;51.194;6.840;2022-10-16T13:18:48;21.20;99.90
18083;DHT22;9168;51.194;6.840;2022-10-16T13:21:34;21.20;99.90
18083;DHT22;9168;51.194;6.840;2022-10-16T13:24:14;21.30;99.90
18083;DHT22;9168;51.194;6.840;2022-10-16T13:26:52;21.30;99.90
18083;DHT22;9168;51.194;6.840;2022-10-16T13:29:24;21.30;99.90
18083;DHT22;9168;51.194;6.840;2022-10-16T13:31:56;21.20;99.90
18083;DHT22;9168;51.194;6.840;2022-10-16T13:34:26;21.20;99.90
18083;DHT22;9168;51.194;6.840;2022-10-16T13:36:53;21.20;99.90
18083;DHT22;9168;51.194;6.840;2022-10-16T13:39:22;21.30;99.90
18083;DHT22;9168;51.194;6.840;2022-10-16T13:42:03;21.30;99.90
18083;DHT22;9168;51.194;6.840;2022-10-16T13:44:35;21.30;99.90
18083;DHT22;9168;51.194;6.840;2022-10-16T13:47:03;21.40;99.90
18083;DHT22;9168;51.194;6.840;2022-10-16T13:49:31;21.50;99.90
18083;DHT22;9168;51.194;6.840;2022-10-16T13:51:59;21.40;99.90
18083;DHT22;9168;51.194;6.840;2022-10-16T13:54:27;21.30;99.90
18083;DHT22;9168;51.194;6.840;2022-10-16T13:56:55;21.40;99.90
18083;DHT22;9168;51.194;6.840;2022-10-16T13:59:24;21.40;99.90
18083;DHT22;9168;51.194;6.840;2022-10-16T14:01:53;21.40;99.90
18083;DHT22;9168;51.194;6.840;2022-10-16T14:04:21;21.40;99.90
18083;DHT22;9168;51.194;6.840;2022-10-16T14:06:51;21.10;99.90
18083;DHT22;9168;51.194;6.840;2022-10-16T14:09:23;20.90;99.90
18083;DHT22;9168;51.194;6.840;2022-10-16T14:11:54;20.70;99.90
18083;DHT22;9168;51.194;6.840;2022-10-16T14:14:24;20.60;99.90
18083;DHT22;9168;51.194;6.840;2022-10-16T14:16:53;20.50;99.90
18083;DHT22;9168;51.194;6.840;2022-10-16T14:19:22;20.30;99.90
18083;DHT22;9168;51.194;6.840;2022-10-16T14:21:52;20.20;99.90
18083;DHT22;9168;51.194;6.840;2022-10-16T14:24:26;20.10;99.90
18083;DHT22;9168;51.194;6.840;2022-10-16T14:26:54;20.00;99.90
18083;DHT22;9168;51.194;6.840;2022-10-16T14:29:23;20.10;99.90
18083;DHT22;9168;51.194;6.840;2022-10-16T14:31:57;20.10;99.90
18083;DHT22;9168;51.194;6.840;2022-10-16T14:34:27;20.10;99.90
18083;DHT22;9168;51.194;6.840;2022-10-16T14:36:55;20.20;99.90
18083;DHT22;9168;51.194;6.840;2022-10-16T14:39:25;20.10;99.90
18083;DHT22;9168;51.194;6.840;2022-10-16T14:41:55;20.00;99.90
18083;DHT22;9168;51.194;6.840;2022-10-16T14:44:27;19.90;99.90
18083;DHT22;9168;51.194;6.840;2022-10-16T14:46:54;19.80;99.90
18083;DHT22;9168;51.194;6.840;2022-10-16T14:49:22;19.80;99.90
18083;DHT22;9168;51.194;6.840;2022-10-16T14:51:50;19.70;99.90
18083;DHT22;9168;51.194;6.840;2022-10-16T14:54:19;19.50;99.90
18083;DHT22;9168;51.194;6.840;2022-10-16T14:56:48;19.50;99.90
18083;DHT22;9168;51.194;6.840;2022-10-16T14:59:18;19.40;99.90
18083;DHT22;9168;51.194;6.840;2022-10-16T15:01:45;19.30;99.90
18083;DHT22;9168;51.194;6.840;2022-10-16T15:04:12;19.20;99.90
18083;DHT22;9168;51.194;6.840;2022-10-16T15:06:40;19.10;99.90
18083;DHT22;9168;51.194;6.840;2022-10-16T15:09:06;19.10;99.90
18083;DHT22;9168;51.194;6.840;2022-10-16T15:11:35;19.00;99.90
18083;DHT22;9168;51.194;6.840;2022-10-16T15:14:02;19.00;99.90
18083;DHT22;9168;51.194;6.840;2022-10-16T15:16:30;18.90;99.90
18083;DHT22;9168;51.194;6.840;2022-10-16T15:18:57;18.90;99.90
18083;DHT22;9168;51.194;6.840;2022-10-16T15:21:26;18.90;99.90
18083;DHT22;9168;51.194;6.840;2022-10-16T15:23:53;18.80;99.90
18083;DHT22;9168;51.194;6.840;2022-10-16T15:26:22;18.70;99.90
18083;DHT22;9168;51.194;6.840;2022-10-16T15:28:50;18.70;99.90
18083;DHT22;9168;51.194;6.840;2022-10-16T15:31:17;18.60;99.90
18083;DHT22;9168;51.194;6.840;2022-10-16T15:33:44;18.60;99.90
18083;DHT22;9168;51.194;6.840;2022-10-16T15:36:23;18.50;99.90
18083;DHT22;9168;51.194;6.840;2022-10-16T15:38:50;18.40;99.90
18083;DHT22;9168;51.194;6.840;2022-10-16T15:41:18;18.30;99.90
18083;DHT22;9168;51.194;6.840;2022-10-16T15:43:48;18.30;99.90
18083;DHT22;9168;51.194;6.840;2022-10-16T15:46:18;18.20;99.90
18083;DHT22;9168;51.194;6.840;2022-10-16T15:48:45;18.10;99.90
18083;DHT22;9168;51.194;6.840;2022-10-16T15:51:13;18.10;99.90
18083;DHT22;9168;51.194;6.840;2022-10-16T15:53:39;18.00;99.90
18083;DHT22;9168;51.194;6.840;2022-10-16T15:56:08;17.90;99.90
18083;DHT22;9168;51.194;6.840;2022-10-16T15:58:37;17.90;99.90
18083;DHT22;9168;51.194;6.840;2022-10-16T16:01:04;17.80;99.90
18083;DHT22;9168;51.194;6.840;2022-10-16T16:03:33;17.80;99.90